sensor_id;sensor_type;location;lat;lon;timestamp;temperature;humidity
5689;DHT22;2869;50.432;8.680;2022-10-17T00:02:15;13.40;99.90
5689;DHT22;2869;50.432;8.680;2022-10-17T00:04:42;13.30;99.90
5689;DHT22;2869;50.432;8.680;2022-10-17T00:07:09;13.30;99.90
5689;DHT22;2869;50.432;8.680;2022-10-17T00:09:37;13.30;99.90
5689;DHT22;2869;50.432;8.680;2022-10-17T00:12:04;13.30;99.90
5689;DHT22;2869;50.432;8.680;2022-10-17T00:14:31;13.20;99.90
5689;DHT22;2869;50.432;8.680;2022-10-17T00:16:57;13.20;99.90
5689;DHT22;2869;50.432;8.680;2022-10-17T00:19:24;13.20;99.90
5689;DHT22;2869;50.432;8.680;2022-10-17T00:21:51;13.20;99.90
5689;DHT22;2869;50.432;8.680;2022-10-17T00:24:17;13.10;99.90
5689;DHT22;2869;50.432;8.680;2022-10-17T00:26:45;13.10;99.90
5689;DHT22;2869;50.432;8.680;2022-10-17T00:29:12;13.10;99.90
5689;DHT22;2869;50.432;8.680;2022-10-17T00:31:39;13.10;99.90
5689;DHT22;2869;50.432;8.680;2022-10-17T00:34:05;13.10;99.90
5689;DHT22;2869;50.432;8.680;2022-10-17T00:36:32;13.10;99.90
5689;DHT22;2869;50.432;8.680;2022-10-17T00:38:59;13.00;99.90
5689;DHT22;2869;50.432;8.680;2022-10-17T00:41:29;13.00;99.90
5689;DHT22;2869;50.432;8.680;2022-10-17T00:44:00;13.00;99.90
5689;DHT22;2869;50.432;8.680;2022-10-17T00:46:28;13.10;99.90
5689;DHT22;2869;50.432;8.680;2022-10-17T00:48:58;13.10;99.90
5689;DHT22;2869;50.432;8.680;2022-10-17T00:51:29;13.10;99.90
5689;DHT22;2869;50.432;8.680;2022-10-17T00:54:00;13.10;99.90
5689;DHT22;2869;50.432;8.680;2022-10-17T00:56:28;13.00;99.90
5689;DHT22;2869;50.432;8.680;2022-10-17T00:58:57;13.00;99.90
5689;DHT22;2869;50.432;8.680;2022-10-17T01:01:24;13.10;99.90
5689;DHT22;2869;50.432;8.680;2022-10-17T01:03:51;13.10;99.90
5689;DHT22;2869;50.432;8.680;2022-10-17T01:06:18;13.10;99.90
5689;DHT22;2869;50.432;8.680;2022-10-17T01:08:45;13.10;99.90
5689;DHT22;2869;50.432;8.680;2022-10-17T01:11:20;13.10;99.90
5689;DHT22;2869;50.432;8.680;2022-10-17T01:13:51;13.10;99.90
5689;DHT22;2869;50.432;8.680;2022-10-17T01:16:31;13.10;99.90
5689;DHT22;2869;50.432;8.680;2022-10-17T01:19:12;13.20;99.90
5689;DHT22;2869;50.432;8.680;2022-10-17T01:21:50;13.30;99.90
5689;DHT22;2869;50.432;8.680;2022-10-17T01:27:41;13.30;99.90
5689;DHT22;2869;50.432;8.680;2022-10-17T01:30:42;13.20;99.90
5689;DHT22;2869;50.432;8.680;2022-10-17T01:33:12;13.20;99.90
5689;DHT22;2869;50.432;8.680;2022-10-17T01:35:46;13.20;99.90
5689;DHT22;2869;50.432;8.680;2022-10-17T01:38:19;13.20;99.90
5689;DHT22;2869;50.432;8.680;2022-10-17T01:40:50;13.20;99.90
5689;DHT22;2869;50.432;8.680;2022-10-17T01:43:23;13.20;99.90
5689;DHT22;2869;50.432;8.680;2022-10-17T01:45:54;13.20;99.90
5689;DHT22;2869;50.432;8.680;2022-10-17T01:48:28;13.20;99.90
5689;DHT22;2869;50.432;8.680;2022-10-17T01:51:00;13.20;99.90
5689;DHT22;2869;50.432;8.680;2022-10-17T01:53:32;13.20;99.90
5689;DHT22;2869;50.432;8.680;2022-10-17T01:56:00;13.20;99.90
5689;DHT22;2869;50.432;8.680;2022-10-17T01:58:31;13.10;99.90
5689;DHT22;2869;50.432;8.680;2022-10-17T02:01:03;13.10;99.90
5689;DHT22;2869;50.432;8.680;2022-10-17T02:03:31;13.10;99.90
5689;DHT22;2869;50.432;8.680;2022-10-17T02:05:59;13.00;99.90
5689;DHT22;2869;50.432;8.680;2022-10-17T02:08:26;13.10;99.90
5689;DHT22;2869;50.432;8.680;2022-10-17T02:10:57;13.00;99.90
5689;DHT22;2869;50.432;8.680;2022-10-17T02:13:34;13.00;99.90
5689;DHT22;2869;50.432;8.680;2022-10-17T02:16:11;13.00;99.90
5689;DHT22;2869;50.432;8.680;2022-10-17T02:18:52;13.00;99.90
5689;DHT22;2869;50.432;8.680;2022-10-17T02:21:27;13.00;99.90
5689;DHT22;2869;50.432;8.680;2022-10-17T02:24:04;13.00;99.90
5689;DHT22;2869;50.432;8.680;2022-10-17T02:26:37;12.90;99.90
5689;DHT22;2869;50.432;8.680;2022-10-17T02:29:08;12.90;99.90
5689;DHT22;2869;50.432;8.680;2022-10-17T02:31:43;12.90;99.90
5689;DHT22;2869;50.432;8.680;2022-10-17T02:34:15;12.90;99.90
5689;DHT22;2869;50.432;8.680;2022-10-17T02:36:46;13.00;99.90
5689;DHT22;2869;50.432;8.680;2022-10-17T02:39:15;13.00;99.90
5689;DHT22;2869;50.432;8.680;2022-10-17T02:41:43;13.00;99.90
5689;DHT22;2869;50.432;8.680;2022-10-17T02:44:10;13.10;99.90
5689;DHT22;2869;50.432;8.680;2022-10-17T02:46:37;13.10;99.90
5689;DHT22;2869;50.432;8.680;2022-10-17T02:49:09;13.20;99.90
5689;DHT22;2869;50.432;8.680;2022-10-17T02:51:43;13.20;99.90
5689;DHT22;2869;50.432;8.680;2022-10-17T02:54:17;13.10;99.90
5689;DHT22;2869;50.432;8.680;2022-10-17T02:56:49;13.10;99.90
5689;DHT22;2869;50.432;8.680;2022-10-17T02:59:20;13.10;99.90
5689;DHT22;2869;50.432;8.680;2022-10-17T03:01:48;13.10;99.90
5689;DHT22;2869;50.432;8.680;2022-10-17T03:04:17;13.10;99.90
5689;DHT22;2869;50.432;8.680;2022-10-17T03:06:46;13.00;99.90
5689;DHT22;2869;50.432;8.680;2022-10-17T03:09:14;13.00;99.90
5689;DHT22;2869;50.432;8.680;2022-10-17T03:11:40;13.00;99.90
5689;DHT22;2869;50.432;8.680;2022-10-17T03:14:07;12.90;99.90
5689;DHT22;2869;50.432;8.680;2022-10-17T03:16:34;12.90;99.90
5689;DHT22;2869;50.432;8.680;2022-10-17T03:19:01;12.80;99.90
5689;DHT22;2869;50.432;8.680;2022-10-17T03:21:29;12.80;99.90
5689;DHT22;2869;50.432;8.680;2022-10-17T03:23:55;12.80;99.90
5689;DHT22;2869;50.432;8.680;2022-10-17T03:26:22;12.80;99.90
5689;DHT22;2869;50.432;8.680;2022-10-17T03:28:49;12.80;99.90
5689;DHT22;2869;50.432;8.680;2022-10-17T03:31:16;12.90;99.90
5689;DHT22;2869;50.432;8.680;2022-10-17T03:33:43;12.90;99.90
5689;DHT22;2869;50.432;8.680;2022-10-17T03:36:11;12.90;99.90
5689;DHT22;2869;50.432;8.680;2022-10-17T03:38:40;12.90;99.90
5689;DHT22;2869;50.432;8.680;2022-10-17T03:41:08;12.80;99.90
5689;DHT22;2869;50.432;8.680;2022-10-17T03:43:35;12.90;99.90
5689;DHT22;2869;50.432;8.680;2022-10-17T03:46:02;12.80;99.90
5689;DHT22;2869;50.432;8.680;2022-10-17T03:48:30;12.90;99.90
5689;DHT22;2869;50.432;8.680;2022-10-17T03:50:58;12.80;99.90
5689;DHT22;2869;50.432;8.680;2022-10-17T03:53:25;12.80;99.90
5689;DHT22;2869;50.432;8.680;2022-10-17T03:55:53;12.90;99.90
5689;DHT22;2869;50.432;8.680;2022-10-17T03:58:20;12.90;99.90
5689;DHT22;2869;50.432;8.680;2022-10-17T04:00:47;13.00;99.90
5689;DHT22;2869;50.432;8.680;2022-10-17T04:03:13;13.00;99.90
5689;DHT22;2869;50.432;8.680;2022-10-17T04:05:40;12.90;99.90
5689;DHT22;2869;50.432;8.680;2022-10-17T04:08:07;13.00;99.90
5689;DHT22;2869;50.432;8.680;2022-10-17T04:10:33;13.00;99.90
5689;DHT22;2869;50.432;8.680;2022-10-17T04:13:01;13.00;99.90
5689;DHT22;2869;50.432;8.680;2022-10-17T04:15:28;13.00;99.90
5689;DHT22;2869;50.432;8.680;2022-10-17T04:17:55;13.10;99.90
5689;DHT22;2869;50.432;8.680;2022-10-17T04:20:21;13.10;99.90
5689;DHT22;2869;50.432;8.680;2022-10-17T04:22:48;13.20;99.90
5689;DHT22;2869;50.432;8.680;2022-10-17T04:25:14;13.20;99.90
5689;DHT22;2869;50.432;8.680;2022-10-17T04:27:41;13.20;99.90
5689;DHT22;2869;50.432;8.680;2022-10-17T04:30:10;13.20;99.90
5689;DHT22;2869;50.432;8.680;2022-10-17T04:32:37;13.20;99.90
5689;DHT22;2869;50.432;8.680;2022-10-17T04:35:04;13.30;99.90
5689;DHT22;2869;50.432;8.680;2022-10-17T04:37:31;13.30;99.90
5689;DHT22;2869;50.432;8.680;2022-10-17T04:39:58;13.30;99.90
5689;DHT22;2869;50.432;8.680;2022-10-17T04:42:24;13.30;99.90
5689;DHT22;2869;50.432;8.680;2022-10-17T04:44:51;13.30;99.90
5689;DHT22;2869;50.432;8.680;2022-10-17T04:47:19;13.30;99.90
5689;DHT22;2869;50.432;8.680;2022-10-17T04:49:46;13.30;99.90
5689;DHT22;2869;50.432;8.680;2022-10-17T04:52:12;13.30;99.90
5689;DHT22;2869;50.432;8.680;2022-10-17T04:54:39;13.30;99.90
5689;DHT22;2869;50.432;8.680;2022-10-17T04:57:06;13.30;99.90
5689;DHT22;2869;50.432;8.680;2022-10-17T04:59:32;13.40;99.90
5689;DHT22;2869;50.432;8.680;2022-10-17T05:01:59;13.40;99.90
5689;DHT22;2869;50.432;8.680;2022-10-17T05:04:27;13.30;99.90
5689;DHT22;2869;50.432;8.680;2022-10-17T05:06:54;13.30;99.90
5689;DHT22;2869;50.432;8.680;2022-10-17T05:09:20;13.30;99.90
5689;DHT22;2869;50.432;8.680;2022-10-17T05:11:47;13.30;99.90
5689;DHT22;2869;50.432;8.680;2022-10-17T05:14:14;13.30;99.90
5689;DHT22;2869;50.432;8.680;2022-10-17T05:16:41;13.30;99.90
5689;DHT22;2869;50.432;8.680;2022-10-17T05:19:07;13.30;99.90
5689;DHT22;2869;50.432;8.680;2022-10-17T05:21:35;13.30;99.90
5689;DHT22;2869;50.432;8.680;2022-10-17T05:24:04;13.20;99.90
5689;DHT22;2869;50.432;8.680;2022-10-17T05:26:31;13.20;99.90
5689;DHT22;2869;50.432;8.680;2022-10-17T05:28:58;13.20;99.90
5689;DHT22;2869;50.432;8.680;2022-10-17T05:31:27;13.10;99.90
5689;DHT22;2869;50.432;8.680;2022-10-17T05:33:54;13.10;99.90
5689;DHT22;2869;50.432;8.680;2022-10-17T05:36:21;13.00;99.90
5689;DHT22;2869;50.432;8.680;2022-10-17T05:38:50;12.90;99.90
5689;DHT22;2869;50.432;8.680;2022-10-17T05:41:18;12.90;99.90
5689;DHT22;2869;50.432;8.680;2022-10-17T05:43:44;12.90;99.90
5689;DHT22;2869;50.432;8.680;2022-10-17T05:46:11;12.90;99.90
5689;DHT22;2869;50.432;8.680;2022-10-17T05:48:38;12.90;99.90
5689;DHT22;2869;50.432;8.680;2022-10-17T05:51:06;13.00;99.90
5689;DHT22;2869;50.432;8.680;2022-10-17T05:53:35;13.00;99.90
5689;DHT22;2869;50.432;8.680;2022-10-17T05:56:05;13.00;99.90
5689;DHT22;2869;50.432;8.680;2022-10-17T05:58:32;13.00;99.90
5689;DHT22;2869;50.432;8.680;2022-10-17T06:01:01;13.10;99.90
5689;DHT22;2869;50.432;8.680;2022-10-17T06:03:29;13.10;99.90
5689;DHT22;2869;50.432;8.680;2022-10-17T06:05:56;13.10;99.90
5689;DHT22;2869;50.432;8.680;2022-10-17T06:08:28;13.10;99.90
5689;DHT22;2869;50.432;8.680;2022-10-17T06:10:54;13.10;99.90
5689;DHT22;2869;50.432;8.680;2022-10-17T06:13:22;13.10;99.90
5689;DHT22;2869;50.432;8.680;2022-10-17T06:15:49;13.10;99.90
5689;DHT22;2869;50.432;8.680;2022-10-17T06:18:16;13.00;99.90
5689;DHT22;2869;50.432;8.680;2022-10-17T06:20:42;13.00;99.90
5689;DHT22;2869;50.432;8.680;2022-10-17T06:23:09;13.00;99.90
5689;DHT22;2869;50.432;8.680;2022-10-17T06:25:36;13.00;99.90
5689;DHT22;2869;50.432;8.680;2022-10-17T06:28:03;13.20;99.90
5689;DHT22;2869;50.432;8.680;2022-10-17T06:30:31;13.40;99.90
5689;DHT22;2869;50.432;8.680;2022-10-17T06:32:57;13.90;99.90
5689;DHT22;2869;50.432;8.680;2022-10-17T06:35:24;14.50;99.90
5689;DHT22;2869;50.432;8.680;2022-10-17T06:37:51;15.10;99.90
5689;DHT22;2869;50.432;8.680;2022-10-17T06:40:17;15.80;99.90
5689;DHT22;2869;50.432;8.680;2022-10-17T06:42:44;16.30;99.90
5689;DHT22;2869;50.432;8.680;2022-10-17T06:45:11;16.90;99.90
5689;DHT22;2869;50.432;8.680;2022-10-17T06:47:39;17.30;99.90
5689;DHT22;2869;50.432;8.680;2022-10-17T06:50:06;17.40;99.90
5689;DHT22;2869;50.432;8.680;2022-10-17T06:52:33;17.70;99.90
5689;DHT22;2869;50.432;8.680;2022-10-17T06:54:59;18.10;99.90
5689;DHT22;2869;50.432;8.680;2022-10-17T06:57:26;18.30;99.90
5689;DHT22;2869;50.432;8.680;2022-10-17T06:59:53;18.50;99.90
5689;DHT22;2869;50.432;8.680;2022-10-17T07:02:22;18.60;99.90
5689;DHT22;2869;50.432;8.680;2022-10-17T07:04:50;18.80;99.90
5689;DHT22;2869;50.432;8.680;2022-10-17T07:07:17;19.10;99.90
5689;DHT22;2869;50.432;8.680;2022-10-17T07:09:43;19.40;99.90
5689;DHT22;2869;50.432;8.680;2022-10-17T07:12:10;19.80;99.90
5689;DHT22;2869;50.432;8.680;2022-10-17T07:14:37;20.30;99.90
5689;DHT22;2869;50.432;8.680;2022-10-17T07:17:04;20.70;99.90
5689;DHT22;2869;50.432;8.680;2022-10-17T07:19:30;21.00;99.90
5689;DHT22;2869;50.432;8.680;2022-10-17T07:21:58;21.30;99.90
5689;DHT22;2869;50.432;8.680;2022-10-17T07:24:25;21.70;99.90
5689;DHT22;2869;50.432;8.680;2022-10-17T07:26:52;22.00;99.90
5689;DHT22;2869;50.432;8.680;2022-10-17T07:29:18;22.30;99.90
5689;DHT22;2869;50.432;8.680;2022-10-17T07:31:45;22.40;99.90
5689;DHT22;2869;50.432;8.680;2022-10-17T07:34:13;22.50;99.90
5689;DHT22;2869;50.432;8.680;2022-10-17T07:36:40;22.60;99.90
5689;DHT22;2869;50.432;8.680;2022-10-17T07:39:08;22.60;99.90
5689;DHT22;2869;50.432;8.680;2022-10-17T07:41:35;22.40;99.90
5689;DHT22;2869;50.432;8.680;2022-10-17T07:44:02;21.80;99.90
5689;DHT22;2869;50.432;8.680;2022-10-17T07:46:29;21.50;99.90
5689;DHT22;2869;50.432;8.680;2022-10-17T07:48:55;21.30;99.90
5689;DHT22;2869;50.432;8.680;2022-10-17T07:51:22;21.30;99.90
5689;DHT22;2869;50.432;8.680;2022-10-17T07:53:49;21.30;99.90
5689;DHT22;2869;50.432;8.680;2022-10-17T07:56:17;21.30;99.90
5689;DHT22;2869;50.432;8.680;2022-10-17T07:58:43;21.30;99.90
5689;DHT22;2869;50.432;8.680;2022-10-17T08:01:12;21.30;99.90
5689;DHT22;2869;50.432;8.680;2022-10-17T08:03:39;21.20;99.90
5689;DHT22;2869;50.432;8.680;2022-10-17T08:06:07;21.10;99.90
5689;DHT22;2869;50.432;8.680;2022-10-17T08:08:33;21.10;99.90
5689;DHT22;2869;50.432;8.680;2022-10-17T08:11:02;21.20;99.90
5689;DHT22;2869;50.432;8.680;2022-10-17T08:13:31;21.10;99.90
5689;DHT22;2869;50.432;8.680;2022-10-17T08:15:59;21.20;99.90
5689;DHT22;2869;50.432;8.680;2022-10-17T08:18:26;21.40;99.90
5689;DHT22;2869;50.432;8.680;2022-10-17T08:20:52;21.50;99.90
5689;DHT22;2869;50.432;8.680;2022-10-17T08:23:19;21.40;99.90
5689;DHT22;2869;50.432;8.680;2022-10-17T08:25:46;21.40;99.90
5689;DHT22;2869;50.432;8.680;2022-10-17T08:28:12;21.50;99.90
5689;DHT22;2869;50.432;8.680;2022-10-17T08:30:40;21.50;99.90
5689;DHT22;2869;50.432;8.680;2022-10-17T08:33:07;21.50;99.90
5689;DHT22;2869;50.432;8.680;2022-10-17T08:35:34;21.20;99.90
5689;DHT22;2869;50.432;8.680;2022-10-17T08:38:00;21.20;99.90
5689;DHT22;2869;50.432;8.680;2022-10-17T08:40:29;21.20;99.90
5689;DHT22;2869;50.432;8.680;2022-10-17T08:45:50;21.30;99.90
5689;DHT22;2869;50.432;8.680;2022-10-17T08:48:19;21.40;99.90
5689;DHT22;2869;50.432;8.680;2022-10-17T08:50:50;21.20;99.90
5689;DHT22;2869;50.432;8.680;2022-10-17T08:53:22;21.20;99.90
5689;DHT22;2869;50.432;8.680;2022-10-17T08:55:52;21.50;99.90
5689;DHT22;2869;50.432;8.680;2022-10-17T08:58:21;21.60;99.90
5689;DHT22;2869;50.432;8.680;2022-10-17T09:00:57;21.40;99.90
5689;DHT22;2869;50.432;8.680;2022-10-17T09:03:49;21.40;99.90
5689;DHT22;2869;50.432;8.680;2022-10-17T09:06:21;21.50;99.90
5689;DHT22;2869;50.432;8.680;2022-10-17T09:09:03;21.60;99.90
5689;DHT22;2869;50.432;8.680;2022-10-17T09:11:42;21.90;99.90
5689;DHT22;2869;50.432;8.680;2022-10-17T09:14:25;21.80;99.90
5689;DHT22;2869;50.432;8.680;2022-10-17T09:17:06;21.60;99.90
5689;DHT22;2869;50.432;8.680;2022-10-17T09:19:39;21.60;99.90
5689;DHT22;2869;50.432;8.680;2022-10-17T09:22:12;21.60;99.90
5689;DHT22;2869;50.432;8.680;2022-10-17T09:24:43;21.40;99.90
5689;DHT22;2869;50.432;8.680;2022-10-17T09:27:21;21.10;99.90
5689;DHT22;2869;50.432;8.680;2022-10-17T09:29:50;21.10;99.90
5689;DHT22;2869;50.432;8.680;2022-10-17T09:32:22;21.10;99.90
5689;DHT22;2869;50.432;8.680;2022-10-17T09:34:50;21.10;99.90
5689;DHT22;2869;50.432;8.680;2022-10-17T09:37:17;21.00;99.90
5689;DHT22;2869;50.432;8.680;2022-10-17T09:39:45;21.10;99.90
5689;DHT22;2869;50.432;8.680;2022-10-17T09:42:14;21.20;99.90
5689;DHT22;2869;50.432;8.680;2022-10-17T09:44:48;21.30;99.90
5689;DHT22;2869;50.432;8.680;2022-10-17T09:47:27;21.30;99.90
5689;DHT22;2869;50.432;8.680;2022-10-17T09:49:55;21.40;99.90
5689;DHT22;2869;50.432;8.680;2022-10-17T09:52:26;21.60;99.90
5689;DHT22;2869;50.432;8.680;2022-10-17T09:54:59;21.80;99.90
5689;DHT22;2869;50.432;8.680;2022-10-17T09:57:27;21.70;99.90
5689;DHT22;2869;50.432;8.680;2022-10-17T09:59:58;21.70;99.90
5689;DHT22;2869;50.432;8.680;2022-10-17T10:02:28;21.80;99.90
5689;DHT22;2869;50.432;8.680;2022-10-17T10:04:57;21.80;99.90
5689;DHT22;2869;50.432;8.680;2022-10-17T10:07:25;21.90;99.90
5689;DHT22;2869;50.432;8.680;2022-10-17T10:09:53;21.90;99.90
5689;DHT22;2869;50.432;8.680;2022-10-17T10:12:22;21.80;99.90
5689;DHT22;2869;50.432;8.680;2022-10-17T10:14:49;21.90;99.90
5689;DHT22;2869;50.432;8.680;2022-10-17T10:17:38;21.90;99.90
5689;DHT22;2869;50.432;8.680;2022-10-17T10:20:26;22.00;99.90
5689;DHT22;2869;50.432;8.680;2022-10-17T10:23:16;22.20;99.90
5689;DHT22;2869;50.432;8.680;2022-10-17T10:25:52;22.50;99.90
5689;DHT22;2869;50.432;8.680;2022-10-17T10:28:24;22.70;99.90
5689;DHT22;2869;50.432;8.680;2022-10-17T10:30:51;23.10;99.90
5689;DHT22;2869;50.432;8.680;2022-10-17T10:33:22;23.20;99.90
5689;DHT22;2869;50.432;8.680;2022-10-17T10:35:57;23.30;99.90
5689;DHT22;2869;50.432;8.680;2022-10-17T10:38:25;23.10;99.90
5689;DHT22;2869;50.432;8.680;2022-10-17T10:40:54;23.00;99.90
5689;DHT22;2869;50.432;8.680;2022-10-17T10:43:24;23.20;99.90
5689;DHT22;2869;50.432;8.680;2022-10-17T10:45:52;23.30;99.90
5689;DHT22;2869;50.432;8.680;2022-10-17T10:48:22;23.30;99.90
5689;DHT22;2869;50.432;8.680;2022-10-17T10:50:51;23.50;99.90
5689;DHT22;2869;50.432;8.680;2022-10-17T10:53:31;23.50;99.90
5689;DHT22;2869;50.432;8.680;2022-10-17T10:56:00;23.50;99.90
5689;DHT22;2869;50.432;8.680;2022-10-17T10:58:36;23.50;99.90
5689;DHT22;2869;50.432;8.680;2022-10-17T11:01:08;23.50;99.90
5689;DHT22;2869;50.432;8.680;2022-10-17T11:03:41;23.80;99.90
5689;DHT22;2869;50.432;8.680;2022-10-17T11:06:19;24.00;99.90
5689;DHT22;2869;50.432;8.680;2022-10-17T11:08:50;24.10;99.90
5689;DHT22;2869;50.432;8.680;2022-10-17T11:11:24;24.10;99.90
5689;DHT22;2869;50.432;8.680;2022-10-17T11:13:57;24.20;99.90
5689;DHT22;2869;50.432;8.680;2022-10-17T11:16:31;24.40;99.90
5689;DHT22;2869;50.432;8.680;2022-10-17T11:19:07;24.30;99.90
5689;DHT22;2869;50.432;8.680;2022-10-17T11:21:42;24.30;99.90
5689;DHT22;2869;50.432;8.680;2022-10-17T11:24:17;24.50;99.90
5689;DHT22;2869;50.432;8.680;2022-10-17T11:26:51;24.80;99.90
5689;DHT22;2869;50.432;8.680;2022-10-17T11:29:19;25.00;99.90
5689;DHT22;2869;50.432;8.680;2022-10-17T11:31:50;24.80;99.90
5689;DHT22;2869;50.432;8.680;2022-10-17T11:34:22;24.80;99.90
5689;DHT22;2869;50.432;8.680;2022-10-17T11:36:53;24.90;99.90
5689;DHT22;2869;50.432;8.680;2022-10-17T11:39:28;25.30;99.90
5689;DHT22;2869;50.432;8.680;2022-10-17T11:41:58;25.50;99.90
5689;DHT22;2869;50.432;8.680;2022-10-17T11:44:29;25.70;99.90
5689;DHT22;2869;50.432;8.680;2022-10-17T11:47:00;25.90;99.90
5689;DHT22;2869;50.432;8.680;2022-10-17T11:49:34;26.00;99.90
5689;DHT22;2869;50.432;8.680;2022-10-17T11:52:18;25.70;99.90
5689;DHT22;2869;50.432;8.680;2022-10-17T11:54:50;25.40;99.90
5689;DHT22;2869;50.432;8.680;2022-10-17T11:57:36;25.50;99.90
5689;DHT22;2869;50.432;8.680;2022-10-17T12:00:20;25.60;99.90
5689;DHT22;2869;50.432;8.680;2022-10-17T12:02:52;25.50;99.90
5689;DHT22;2869;50.432;8.680;2022-10-17T12:05:32;25.50;99.90
5689;DHT22;2869;50.432;8.680;2022-10-17T12:08:03;25.30;99.90
5689;DHT22;2869;50.432;8.680;2022-10-17T12:10:38;25.30;99.90
5689;DHT22;2869;50.432;8.680;2022-10-17T12:13:47;25.30;99.90
5689;DHT22;2869;50.432;8.680;2022-10-17T12:16:43;25.30;99.90
5689;DHT22;2869;50.432;8.680;2022-10-17T12:19:23;25.30;99.90
5689;DHT22;2869;50.432;8.680;2022-10-17T12:24:39;25.20;99.90
5689;DHT22;2869;50.432;8.680;2022-10-17T12:27:37;25.00;99.90
5689;DHT22;2869;50.432;8.680;2022-10-17T12:30:14;25.00;99.90
5689;DHT22;2869;50.432;8.680;2022-10-17T12:33:03;25.30;99.90
5689;DHT22;2869;50.432;8.680;2022-10-17T12:35:32;25.60;99.90
5689;DHT22;2869;50.432;8.680;2022-10-17T12:41:03;26.00;99.90
5689;DHT22;2869;50.432;8.680;2022-10-17T12:43:47;25.90;99.90
5689;DHT22;2869;50.432;8.680;2022-10-17T12:46:42;25.80;99.90
5689;DHT22;2869;50.432;8.680;2022-10-17T12:52:18;25.60;99.90
5689;DHT22;2869;50.432;8.680;2022-10-17T12:54:53;25.50;99.90
5689;DHT22;2869;50.432;8.680;2022-10-17T12:57:24;25.50;99.90
5689;DHT22;2869;50.432;8.680;2022-10-17T12:59:52;25.20;99.90
5689;DHT22;2869;50.432;8.680;2022-10-17T13:02:22;25.10;99.90
5689;DHT22;2869;50.432;8.680;2022-10-17T13:04:50;25.00;99.90
5689;DHT22;2869;50.432;8.680;2022-10-17T13:07:22;25.00;99.90
5689;DHT22;2869;50.432;8.680;2022-10-17T13:09:51;24.90;99.90
5689;DHT22;2869;50.432;8.680;2022-10-17T13:12:21;24.90;99.90
5689;DHT22;2869;50.432;8.680;2022-10-17T13:14:50;25.00;99.90
5689;DHT22;2869;50.432;8.680;2022-10-17T13:17:22;24.90;99.90
5689;DHT22;2869;50.432;8.680;2022-10-17T13:19:49;25.00;99.90
5689;DHT22;2869;50.432;8.680;2022-10-17T13:22:18;25.00;99.90
5689;DHT22;2869;50.432;8.680;2022-10-17T13:24:46;24.80;99.90
5689;DHT22;2869;50.432;8.680;2022-10-17T13:27:27;24.70;99.90
5689;DHT22;2869;50.432;8.680;2022-10-17T13:29:55;24.60;99.90
5689;DHT22;2869;50.432;8.680;2022-10-17T13:32:22;24.40;99.90
5689;DHT22;2869;50.432;8.680;2022-10-17T13:35:07;24.30;99.90
5689;DHT22;2869;50.432;8.680;2022-10-17T13:37:34;24.10;99.90
5689;DHT22;2869;50.432;8.680;2022-10-17T13:40:02;24.20;99.90
5689;DHT22;2869;50.432;8.680;2022-10-17T13:42:36;24.30;99.90
5689;DHT22;2869;50.432;8.680;2022-10-17T13:45:12;24.50;99.90
5689;DHT22;2869;50.432;8.680;2022-10-17T13:47:41;24.80;99.90
5689;DHT22;2869;50.432;8.680;2022-10-17T13:50:18;25.30;99.90
5689;DHT22;2869;50.432;8.680;2022-10-17T13:52:45;25.60;99.90
5689;DHT22;2869;50.432;8.680;2022-10-17T13:55:15;25.60;99.90
5689;DHT22;2869;50.432;8.680;2022-10-17T13:57:45;25.60;99.90
5689;DHT22;2869;50.432;8.680;2022-10-17T14:00:18;25.60;99.90
5689;DHT22;2869;50.432;8.680;2022-10-17T14:02:45;25.70;99.90
5689;DHT22;2869;50.432;8.680;2022-10-17T14:05:16;25.50;99.90
5689;DHT22;2869;50.432;8.680;2022-10-17T14:07:45;25.40;99.90
5689;DHT22;2869;50.432;8.680;2022-10-17T14:10:20;25.30;99.90
5689;DHT22;2869;50.432;8.680;2022-10-17T14:12:49;25.40;99.90
5689;DHT22;2869;50.432;8.680;2022-10-17T14:15:17;25.30;99.90
5689;DHT22;2869;50.432;8.680;2022-10-17T14:17:45;25.30;99.90
5689;DHT22;2869;50.432;8.680;2022-10-17T14:20:19;25.10;99.90
5689;DHT22;2869;50.432;8.680;2022-10-17T14:22:47;25.10;99.90
5689;DHT22;2869;50.432;8.680;2022-10-17T14:25:28;25.10;99.90
5689;DHT22;2869;50.432;8.680;2022-10-17T14:28:01;25.00;99.90
5689;DHT22;2869;50.432;8.680;2022-10-17T14:30:34;24.90;99.90
5689;DHT22;2869;50.432;8.680;2022-10-17T14:33:04;24.60;99.90
5689;DHT22;2869;50.432;8.680;2022-10-17T14:35:32;24.40;99.90
5689;DHT22;2869;50.432;8.680;2022-10-17T14:38:00;24.30;99.90
5689;DHT22;2869;50.432;8.680;2022-10-17T14:40:28;24.10;99.90
5689;DHT22;2869;50.432;8.680;2022-10-17T14:42:59;23.90;99.90
5689;DHT22;2869;50.432;8.680;2022-10-17T14:45:28;23.60;99.90
5689;DHT22;2869;50.432;8.680;2022-10-17T14:47:59;23.40;99.90
5689;DHT22;2869;50.432;8.680;2022-10-17T14:50:28;23.20;99.90
5689;DHT22;2869;50.432;8.680;2022-10-17T14:53:01;23.00;99.90
5689;DHT22;2869;50.432;8.680;2022-10-17T14:55:30;22.90;99.90
5689;DHT22;2869;50.432;8.680;2022-10-17T14:57:58;22.80;99.90
5689;DHT22;2869;50.432;8.680;2022-10-17T15:00:25;22.80;99.90
5689;DHT22;2869;50.432;8.680;2022-10-17T15:02:53;22.70;99.90
5689;DHT22;2869;50.432;8.680;2022-10-17T15:05:21;22.70;99.90
5689;DHT22;2869;50.432;8.680;2022-10-17T15:07:49;22.60;99.90
5689;DHT22;2869;50.432;8.680;2022-10-17T15:10:24;22.50;99.90
5689;DHT22;2869;50.432;8.680;2022-10-17T15:12:51;22.50;99.90
5689;DHT22;2869;50.432;8.680;2022-10-17T15:15:19;22.40;99.90
5689;DHT22;2869;50.432;8.680;2022-10-17T15:17:45;22.20;99.90
5689;DHT22;2869;50.432;8.680;2022-10-17T15:20:14;22.10;99.90
5689;DHT22;2869;50.432;8.680;2022-10-17T15:22:41;22.10;99.90
5689;DHT22;2869;50.432;8.680;2022-10-17T15:25:08;22.10;99.90
5689;DHT22;2869;50.432;8.680;2022-10-17T15:27:35;22.10;99.90
5689;DHT22;2869;50.432;8.680;2022-10-17T15:30:03;22.10;99.90
5689;DHT22;2869;50.432;8.680;2022-10-17T15:32:31;22.10;99.90
5689;DHT22;2869;50.432;8.680;2022-10-17T15:34:57;22.00;99.90
5689;DHT22;2869;50.432;8.680;2022-10-17T15:37:24;21.90;99.90
5689;DHT22;2869;50.432;8.680;2022-10-17T15:39:52;21.90;99.90
5689;DHT22;2869;50.432;8.680;2022-10-17T15:42:21;21.90;99.90
5689;DHT22;2869;50.432;8.680;2022-10-17T15:44:48;21.90;99.90
5689;DHT22;2869;50.432;8.680;2022-10-17T15:47:21;21.90;99.90
5689;DHT22;2869;50.432;8.680;2022-10-17T15:49:51;21.90;99.90
5689;DHT22;2869;50.432;8.680;2022-10-17T15:52:18;22.00;99.90
5689;DHT22;2869;50.432;8.680;2022-10-17T15:54:44;21.70;99.90
5689;DHT22;2869;50.432;8.680;2022-10-17T15:57:15;21.80;99.90
5689;DHT22;2869;50.432;8.680;2022-10-17T15:59:43;21.70;99.90
5689;DHT22;2869;50.432;8.680;2022-10-17T16:02:12;21.60;99.90
5689;DHT22;2869;50.432;8.680;2022-10-17T16:04:39;21.50;99.90
5689;DHT22;2869;50.432;8.680;2022-10-17T16:07:07;21.40;99.90
5689;DHT22;2869;50.432;8.680;2022-10-17T16:09:34;21.40;99.90
5689;DHT22;2869;50.432;8.680;2022-10-17T16:12:03;21.30;99.90
5689;DHT22;2869;50.432;8.680;2022-10-17T16:14:30;21.30;99.90
5689;DHT22;2869;50.432;8.680;2022-10-17T16:16:57;21.20;99.90
5689;DHT22;2869;50.432;8.680;2022-10-17T16:19:24;21.10;99.90
5689;DHT22;2869;50.432;8.680;2022-10-17T16:21:54;21.10;99.90
5689;DHT22;2869;50.432;8.680;2022-10-17T16:24:23;20.90;99.90
5689;DHT22;2869;50.432;8.680;2022-10-17T16:26:50;20.80;99.90
5689;DHT22;2869;50.432;8.680;2022-10-17T16:29:17;20.70;99.90
5689;DHT22;2869;50.432;8.680;2022-10-17T16:31:44;20.50;99.90
5689;DHT22;2869;50.432;8.680;2022-10-17T16:34:13;20.50;99.90
5689;DHT22;2869;50.432;8.680;2022-10-17T16:36:40;20.50;99.90